Squaw Valley, California
Current Conditions -  °F | °C
As of 7:53 PM on Wednesday 26 Nov 2014 (Local Time) from KFAT Reporting Station
Clear Clear  
Wind Chill: 53°   Ceiling: Unl
Heat Index: 53°   Visibility: 7mi
Dew Point: 45°   Wind: 0mph
Humidity: 74%   Direction: NA
Pressure: 30.24"   Gusts: NA
Location:  36.74°N, 119.25°W
Report Text: KFAT 270353Z 00000KT 7SM CLR 12/07 A3024 RMK AO2 SLP239 T01170072
Loading
Personal Weather Stations






























Interactive Weather Map New forecast layout! Learn more

10-Day Weather Forecast

Advertisements
Track Severe Weather on mobile